createdAt,value
2022-08-07T00:00:41.058Z,13.28
2022-08-07T00:02:37.414Z,13.19
2022-08-07T00:02:44.500Z,13.28
2022-08-07T00:03:40.916Z,13.31
2022-08-07T00:04:40.880Z,13.31
2022-08-07T00:05:40.814Z,13.41
2022-08-07T00:06:51.194Z,13.49
2022-08-07T00:07:41.622Z,13.37
2022-08-07T00:08:44.382Z,13.46
2022-08-07T00:09:40.594Z,13.50
2022-08-07T00:10:48.125Z,13.41
2022-08-07T00:11:53.996Z,13.38
2022-08-07T00:12:57.692Z,13.41
2022-08-07T00:13:40.494Z,13.44
2022-08-07T00:14:40.332Z,13.39
2022-08-07T00:15:46.385Z,13.31
2022-08-07T00:16:40.232Z,13.18
2022-08-07T00:17:40.179Z,13.15
2022-08-07T00:18:40.127Z,13.16
2022-08-07T00:20:00.884Z,13.12
2022-08-07T00:20:40.024Z,13.18
2022-08-07T00:21:57.053Z,13.25
2022-08-07T00:22:39.919Z,13.33
2022-08-07T00:23:40.234Z,13.30
2022-08-07T00:24:39.847Z,13.30
2022-08-07T00:25:41.457Z,13.31
2022-08-07T00:26:59.014Z,13.37
2022-08-07T00:27:52.150Z,13.31
2022-08-07T00:28:45.742Z,13.31
2022-08-07T00:29:39.576Z,13.41
2022-08-07T00:30:39.520Z,13.42
2022-08-07T00:31:42.103Z,13.35
2022-08-07T00:32:39.411Z,13.49
2022-08-07T00:33:39.362Z,13.33
2022-08-07T00:34:39.301Z,13.31
2022-08-07T00:35:39.268Z,13.27
2022-08-07T00:36:42.777Z,13.28
2022-08-07T00:37:47.835Z,13.31
2022-08-07T00:38:39.272Z,13.33
2022-08-07T00:39:45.050Z,13.30
2022-08-07T00:40:40.790Z,13.35
2022-08-07T00:41:53.035Z,13.27
2022-08-07T00:42:38.890Z,13.15
2022-08-07T00:43:59.194Z,13.08
2022-08-07T00:44:41.491Z,13.04
2022-08-07T00:45:38.755Z,13.01
2022-08-07T00:46:38.682Z,13.03
2022-08-07T00:48:09.948Z,13.08
2022-08-07T00:48:42.060Z,13.03
2022-08-07T00:50:20.419Z,12.91
2022-08-07T00:50:46.657Z,12.93
2022-08-07T00:51:56.443Z,12.86
2022-08-07T00:52:38.375Z,12.91
2022-08-07T00:53:50.476Z,12.87
2022-08-07T00:54:40.637Z,12.83
2022-08-07T00:56:03.131Z,12.87
2022-08-07T00:56:38.165Z,12.80
2022-08-07T00:57:38.111Z,12.61
2022-08-07T00:58:38.075Z,12.54
2022-08-07T00:59:38.028Z,12.49
2022-08-07T01:00:37.960Z,12.39
2022-08-07T01:01:44.239Z,12.46
2022-08-07T01:02:37.854Z,12.40
2022-08-07T01:03:55.980Z,12.39
2022-08-07T01:04:43.297Z,12.46
2022-08-07T01:05:37.697Z,12.40
2022-08-07T01:06:37.666Z,12.39
2022-08-07T01:07:37.594Z,12.32
2022-08-07T01:08:37.539Z,12.36
2022-08-07T01:10:04.403Z,12.39
2022-08-07T01:10:37.437Z,12.39
2022-08-07T01:12:23.356Z,12.43
2022-08-07T01:12:37.330Z,12.42
2022-08-07T01:13:37.281Z,12.45
2022-08-07T01:14:37.335Z,12.53
2022-08-07T01:16:05.538Z,12.43
2022-08-07T01:16:37.177Z,12.46
2022-08-07T01:17:37.074Z,12.46
2022-08-07T01:18:37.020Z,12.46
2022-08-07T01:19:38.407Z,12.39
2022-08-07T01:20:43.137Z,12.29
2022-08-07T01:21:37.046Z,12.32
2022-08-07T01:22:36.815Z,12.42
2022-08-07T01:23:40.078Z,12.42
2022-08-07T01:24:36.722Z,12.35
2022-08-07T01:25:55.176Z,12.45
2022-08-07T01:26:36.609Z,12.27
2022-08-07T01:27:36.991Z,12.22
2022-08-07T01:28:36.500Z,12.09
2022-08-07T01:29:36.462Z,12.12
2022-08-07T01:30:36.412Z,12.03
2022-08-07T01:31:42.430Z,12.06
2022-08-07T01:32:36.290Z,12.12
2022-08-07T01:33:56.218Z,12.17
2022-08-07T01:34:36.189Z,12.18
2022-08-07T01:35:53.505Z,12.20
2022-08-07T01:36:36.446Z,12.22
2022-08-07T01:37:36.031Z,12.25
2022-08-07T01:38:35.981Z,12.24
2022-08-07T01:39:39.512Z,12.21
2022-08-07T01:40:35.948Z,12.22
2022-08-07T01:41:35.829Z,12.09
2022-08-07T01:42:38.842Z,11.97
2022-08-07T01:43:38.228Z,11.88
2022-08-07T01:44:35.666Z,11.80
2022-08-07T01:45:37.211Z,11.66
2022-08-07T01:46:35.562Z,11.70
2022-08-07T01:48:20.484Z,11.68
2022-08-07T01:48:35.965Z,11.57
2022-08-07T01:49:35.405Z,11.52
2022-08-07T01:50:35.352Z,11.50
2022-08-07T01:52:02.706Z,11.55
2022-08-07T01:52:35.248Z,11.48
2022-08-07T01:54:00.784Z,11.62
2022-08-07T01:54:36.631Z,11.63
2022-08-07T01:55:35.091Z,11.68
2022-08-07T01:56:35.053Z,11.65
2022-08-07T01:58:05.774Z,11.54
2022-08-07T01:58:40.923Z,11.62
2022-08-07T01:59:34.885Z,11.57
2022-08-07T02:00:34.829Z,11.66
2022-08-07T02:01:59.756Z,11.69
2022-08-07T02:03:19.198Z,11.51
2022-08-07T02:03:48.863Z,11.48
2022-08-07T02:04:34.642Z,11.48
2022-08-07T02:05:43.147Z,11.51
2022-08-07T02:06:34.535Z,11.63
2022-08-07T02:07:44.871Z,11.66
2022-08-07T02:08:34.410Z,11.60
2022-08-07T02:09:52.708Z,11.52
2022-08-07T02:10:34.311Z,11.59
2022-08-07T02:12:04.696Z,11.51
2022-08-07T02:12:34.212Z,11.59
2022-08-07T02:13:56.591Z,11.60
2022-08-07T02:14:36.200Z,11.65
2022-08-07T02:15:34.247Z,11.73
2022-08-07T02:16:33.994Z,11.63
2022-08-07T02:17:34.761Z,11.65
2022-08-07T02:18:33.887Z,11.66
2022-08-07T02:20:07.470Z,11.60
2022-08-07T02:20:33.796Z,11.66
2022-08-07T02:21:55.075Z,11.52
2022-08-07T02:22:33.675Z,11.47
2022-08-07T02:23:35.835Z,11.47
2022-08-07T02:24:33.587Z,11.50
2022-08-07T02:26:31.081Z,11.43
2022-08-07T02:26:34.645Z,11.35
2022-08-07T02:27:34.838Z,11.35
2022-08-07T02:28:33.361Z,11.36
2022-08-07T02:29:34.403Z,11.43
2022-08-07T02:30:33.256Z,11.36
2022-08-07T02:31:33.218Z,11.44
2022-08-07T02:32:33.153Z,11.47
2022-08-07T02:33:57.496Z,11.60
2022-08-07T02:34:33.044Z,11.48
2022-08-07T02:36:29.500Z,11.52
2022-08-07T02:36:33.170Z,11.60
2022-08-07T02:37:34.123Z,11.59
2022-08-07T02:38:32.838Z,11.50
2022-08-07T02:39:43.323Z,11.52
2022-08-07T02:40:35.116Z,11.63
2022-08-07T02:41:33.428Z,11.57
2022-08-07T02:42:32.621Z,11.59
2022-08-07T02:43:32.570Z,11.60
2022-08-07T02:44:34.798Z,11.50
2022-08-07T02:46:00.917Z,11.51
2022-08-07T02:46:32.428Z,11.57
2022-08-07T02:47:40.147Z,11.50
2022-08-07T02:48:32.307Z,11.48
2022-08-07T02:49:58.592Z,11.35
2022-08-07T02:50:32.650Z,11.33
2022-08-07T02:51:42.491Z,11.33
2022-08-07T02:52:32.556Z,11.36
2022-08-07T02:53:34.008Z,11.25
2022-08-07T02:54:32.004Z,11.25
2022-08-07T02:56:03.082Z,11.27
2022-08-07T02:56:31.888Z,11.25
2022-08-07T02:57:35.035Z,11.19
2022-08-07T02:58:33.433Z,11.04
2022-08-07T02:59:31.725Z,11.19
2022-08-07T03:00:31.689Z,11.15
2022-08-07T03:01:36.311Z,11.23
2022-08-07T03:02:31.569Z,11.12
2022-08-07T03:03:49.643Z,11.10
2022-08-07T03:04:31.465Z,11.05
2022-08-07T03:05:35.981Z,11.04
2022-08-07T03:06:32.842Z,11.11
2022-08-07T03:07:43.317Z,11.23
2022-08-07T03:08:31.270Z,11.25
2022-08-07T03:09:42.368Z,11.23
2022-08-07T03:10:31.146Z,11.12
2022-08-07T03:11:32.703Z,11.12
2022-08-07T03:12:31.338Z,11.08
2022-08-07T03:13:30.986Z,11.04
2022-08-07T03:14:30.951Z,10.93
2022-08-07T03:15:56.792Z,10.97
2022-08-07T03:16:30.855Z,11.08
2022-08-07T03:17:30.955Z,11.17
2022-08-07T03:18:34.715Z,11.00
2022-08-07T03:19:37.278Z,10.96
2022-08-07T03:20:30.617Z,10.92
2022-08-07T03:21:32.847Z,10.89
2022-08-07T03:22:30.715Z,11.00
2022-08-07T03:23:34.127Z,10.99
2022-08-07T03:24:30.420Z,10.94
2022-08-07T03:25:32.439Z,11.00
2022-08-07T03:26:30.302Z,11.12
2022-08-07T03:27:59.359Z,11.08
2022-08-07T03:28:37.831Z,11.08
2022-08-07T03:29:30.156Z,11.07
2022-08-07T03:30:30.087Z,11.08
2022-08-07T03:31:42.688Z,10.93
2022-08-07T03:32:30.002Z,10.92
2022-08-07T03:33:32.321Z,10.76
2022-08-07T03:34:29.878Z,10.79
2022-08-07T03:35:37.967Z,10.79
2022-08-07T03:36:29.785Z,10.72
2022-08-07T03:37:32.522Z,10.79
2022-08-07T03:38:33.115Z,10.75
2022-08-07T03:39:59.245Z,10.78
2022-08-07T03:40:36.235Z,10.71
2022-08-07T03:41:41.722Z,10.75
2022-08-07T03:42:29.451Z,10.67
2022-08-07T03:43:32.224Z,10.71
2022-08-07T03:44:31.853Z,10.71
2022-08-07T03:45:30.951Z,10.67
2022-08-07T03:46:29.238Z,10.60
2022-08-07T03:47:29.553Z,10.64
2022-08-07T03:48:29.690Z,10.71
2022-08-07T03:49:29.081Z,10.71
2022-08-07T03:50:29.136Z,10.69
2022-08-07T03:51:30.906Z,10.71
2022-08-07T03:52:28.920Z,10.75
2022-08-07T03:53:50.205Z,10.68
2022-08-07T03:54:35.525Z,10.63
2022-08-07T03:55:46.072Z,10.61
2022-08-07T03:56:33.060Z,10.63
2022-08-07T03:58:34.574Z,10.63
2022-08-07T03:59:04.786Z,10.68
2022-08-07T03:59:28.563Z,10.60
2022-08-07T04:00:30.534Z,10.63
2022-08-07T04:01:28.484Z,10.51
2022-08-07T04:02:28.388Z,10.53
2022-08-07T04:03:28.336Z,10.57
2022-08-07T04:04:28.284Z,10.57
2022-08-07T04:05:39.769Z,10.67
2022-08-07T04:06:37.678Z,10.61
2022-08-07T04:07:36.142Z,10.51
2022-08-07T04:08:28.071Z,10.61
2022-08-07T04:09:29.470Z,10.54
2022-08-07T04:10:27.966Z,10.60
2022-08-07T04:12:27.890Z,10.56
2022-08-07T04:12:29.076Z,10.54
2022-08-07T04:13:27.912Z,10.59
2022-08-07T04:14:38.018Z,10.53
2022-08-07T04:15:27.698Z,10.54
2022-08-07T04:16:30.886Z,10.56
2022-08-07T04:18:11.178Z,10.54
2022-08-07T04:18:58.262Z,10.56
2022-08-07T04:19:51.253Z,10.48
2022-08-07T04:20:27.443Z,10.57
2022-08-07T04:21:27.376Z,10.57
2022-08-07T04:22:29.561Z,10.57
2022-08-07T04:23:43.920Z,10.68
2022-08-07T04:24:34.161Z,10.53
2022-08-07T04:25:29.294Z,10.56
2022-08-07T04:26:28.500Z,10.56
2022-08-07T04:27:27.061Z,10.64
2022-08-07T04:28:27.005Z,10.71
2022-08-07T04:29:26.950Z,10.69
2022-08-07T04:30:35.641Z,10.78
2022-08-07T04:31:38.473Z,10.74
2022-08-07T04:32:34.037Z,10.76
2022-08-07T04:33:26.754Z,10.69
2022-08-07T04:34:33.077Z,10.67
2022-08-07T04:35:26.638Z,10.82
2022-08-07T04:36:26.592Z,10.76
2022-08-07T04:37:26.524Z,10.78
2022-08-07T04:38:26.484Z,10.92
2022-08-07T04:39:26.516Z,10.89
2022-08-07T04:40:26.724Z,10.90
2022-08-07T04:41:26.327Z,10.93
2022-08-07T04:42:28.917Z,10.96
2022-08-07T04:43:53.518Z,10.94
2022-08-07T04:44:26.811Z,10.93
2022-08-07T04:46:00.295Z,10.84
2022-08-07T04:46:34.394Z,10.89
2022-08-07T04:47:56.919Z,10.86
2022-08-07T04:48:25.954Z,10.87
2022-08-07T04:49:25.882Z,10.79
2022-08-07T04:50:25.828Z,10.74
2022-08-07T04:51:27.288Z,10.76
2022-08-07T04:52:27.457Z,10.79
2022-08-07T04:53:40.071Z,10.86
2022-08-07T04:54:30.203Z,10.87
2022-08-07T04:58:09.900Z,10.90
2022-08-07T04:58:10.642Z,10.78
2022-08-07T04:58:10.818Z,10.87
2022-08-07T04:58:49.723Z,10.93
2022-08-07T05:00:10.906Z,10.94
2022-08-07T05:00:31.735Z,11.04
2022-08-07T05:01:30.412Z,11.11
2022-08-07T05:02:25.189Z,11.04
2022-08-07T05:04:00.317Z,11.22
2022-08-07T05:04:26.392Z,11.25
2022-08-07T05:05:53.344Z,11.25
2022-08-07T05:06:28.241Z,11.23
2022-08-07T05:07:30.561Z,11.22
2022-08-07T05:08:59.651Z,11.18
2022-08-07T05:09:27.968Z,11.22
2022-08-07T05:10:24.761Z,11.17
2022-08-07T05:11:26.221Z,11.18
2022-08-07T05:12:27.009Z,11.18
2022-08-07T05:14:52.166Z,11.14
2022-08-07T05:14:52.664Z,11.14
2022-08-07T05:15:24.500Z,11.23
2022-08-07T05:16:24.462Z,11.19
2022-08-07T05:17:52.803Z,11.30
2022-08-07T05:18:24.338Z,11.27
2022-08-07T05:19:25.688Z,11.29
2022-08-07T05:20:24.244Z,11.33
2022-08-07T05:21:59.365Z,11.33
2022-08-07T05:22:27.613Z,11.47
2022-08-07T05:23:30.907Z,11.45
2022-08-07T05:24:24.629Z,11.40
2022-08-07T05:25:35.573Z,11.45
2022-08-07T05:26:24.573Z,11.52
2022-08-07T05:28:02.770Z,11.60
2022-08-07T05:28:26.950Z,11.63
2022-08-07T05:29:23.754Z,11.54
2022-08-07T05:30:30.774Z,11.63
2022-08-07T05:31:23.663Z,11.63
2022-08-07T05:32:23.594Z,11.70
2022-08-07T05:33:23.542Z,11.69
2022-08-07T05:34:26.278Z,11.66
2022-08-07T05:35:33.897Z,11.81
2022-08-07T05:36:32.157Z,11.86
2022-08-07T05:37:25.485Z,11.86
2022-08-07T05:38:59.763Z,11.90
2022-08-07T05:40:06.323Z,11.94
2022-08-07T05:40:23.229Z,12.00
2022-08-07T05:41:23.174Z,12.02
2022-08-07T05:42:34.217Z,12.06
2022-08-07T05:44:01.142Z,12.09
2022-08-07T05:44:29.425Z,12.13
2022-08-07T05:45:46.988Z,12.13
2022-08-07T05:46:22.854Z,12.21
2022-08-07T05:47:38.354Z,12.22
2022-08-07T05:48:26.349Z,12.25
2022-08-07T05:49:22.693Z,12.27
2022-08-07T05:50:22.642Z,12.29
2022-08-07T05:51:22.603Z,12.31
2022-08-07T05:52:32.527Z,12.35
2022-08-07T05:54:12.531Z,12.32
2022-08-07T05:54:31.148Z,12.40
2022-08-07T05:55:22.381Z,12.43
2022-08-07T05:56:29.981Z,12.50
2022-08-07T05:57:22.269Z,12.45
2022-08-07T05:58:35.960Z,12.49
2022-08-07T05:59:22.166Z,12.53
2022-08-07T06:00:22.110Z,12.55
2022-08-07T06:01:22.135Z,12.61
2022-08-07T06:02:28.420Z,12.58
2022-08-07T06:03:21.970Z,12.61
2022-08-07T06:04:21.901Z,12.60
2022-08-07T06:05:28.214Z,12.65
2022-08-07T06:06:21.798Z,12.65
2022-08-07T06:08:09.073Z,12.67
2022-08-07T06:08:31.302Z,12.75
2022-08-07T06:09:21.698Z,12.76
2022-08-07T06:10:21.587Z,12.79
2022-08-07T06:11:21.550Z,12.85
2022-08-07T06:12:27.819Z,12.83
2022-08-07T06:14:10.986Z,12.86
2022-08-07T06:14:28.866Z,12.93
2022-08-07T06:15:21.325Z,12.85
2022-08-07T06:16:21.277Z,12.93
2022-08-07T06:17:26.437Z,12.95
2022-08-07T06:18:21.164Z,12.94
2022-08-07T06:19:57.900Z,12.90
2022-08-07T06:20:31.863Z,13.01
2022-08-07T06:22:15.158Z,12.98
2022-08-07T06:22:24.062Z,13.03
2022-08-07T06:23:46.068Z,13.04
2022-08-07T06:24:45.839Z,13.15
2022-08-07T06:25:20.821Z,13.19
2022-08-07T06:26:20.756Z,13.16
2022-08-07T06:27:22.908Z,13.18
2022-08-07T06:28:27.942Z,13.23
2022-08-07T06:29:20.592Z,13.28
2022-08-07T06:30:24.241Z,13.30
2022-08-07T06:31:20.491Z,13.38
2022-08-07T06:32:20.450Z,13.35
2022-08-07T06:33:20.395Z,13.39
2022-08-07T06:34:20.814Z,13.41
2022-08-07T06:35:20.276Z,13.49
2022-08-07T06:36:27.572Z,13.44
2022-08-07T06:37:20.540Z,13.53
2022-08-07T06:38:20.842Z,13.59
2022-08-07T06:40:17.162Z,13.59
2022-08-07T06:40:21.192Z,13.56
2022-08-07T06:41:47.630Z,13.63
2022-08-07T06:42:19.911Z,13.72
2022-08-07T06:43:21.652Z,13.70
2022-08-07T06:44:19.805Z,13.75
2022-08-07T06:45:19.753Z,13.83
2022-08-07T06:46:20.400Z,13.89
2022-08-07T06:47:20.951Z,13.85
2022-08-07T06:48:24.830Z,13.93
2022-08-07T06:49:19.545Z,13.96
2022-08-07T06:50:19.494Z,13.99
2022-08-07T06:51:31.268Z,14.08
2022-08-07T06:52:31.907Z,14.05
2022-08-07T06:54:11.910Z,14.05
2022-08-07T06:55:33.520Z,14.14
2022-08-07T06:55:34.546Z,14.20
2022-08-07T06:56:19.181Z,14.23
2022-08-07T06:57:19.127Z,14.22
2022-08-07T06:58:21.576Z,14.30
2022-08-07T07:00:12.466Z,14.30
2022-08-07T07:00:18.986Z,14.29
2022-08-07T07:01:19.022Z,14.43
2022-08-07T07:02:49.200Z,14.48
2022-08-07T07:03:26.436Z,14.45
2022-08-07T07:04:28.546Z,14.51
2022-08-07T07:06:03.947Z,14.47
2022-08-07T07:06:23.926Z,14.55
2022-08-07T07:07:58.355Z,14.66
2022-08-07T07:08:25.659Z,14.63
2022-08-07T07:09:18.505Z,14.69
2022-08-07T07:10:21.336Z,14.73
2022-08-07T07:12:08.178Z,14.79
2022-08-07T07:12:25.641Z,14.78
2022-08-07T07:13:56.657Z,14.81
2022-08-07T07:14:18.249Z,14.85
2022-08-07T07:15:23.803Z,14.86
2022-08-07T07:16:19.840Z,14.84
2022-08-07T07:17:18.110Z,14.91
2022-08-07T07:18:33.030Z,14.96
2022-08-07T07:19:57.014Z,14.96
2022-08-07T07:20:17.938Z,15.07
2022-08-07T07:21:19.720Z,15.03
2022-08-07T07:22:35.765Z,15.15
2022-08-07T07:24:06.230Z,15.14
2022-08-07T07:24:17.747Z,15.25
2022-08-07T07:26:34.046Z,15.25
2022-08-07T07:26:34.549Z,15.33
2022-08-07T07:27:17.631Z,15.42
2022-08-07T07:28:29.846Z,15.40
2022-08-07T07:29:55.756Z,15.39
2022-08-07T07:30:32.500Z,15.54
2022-08-07T07:31:21.618Z,15.54
2022-08-07T07:32:17.321Z,15.55
2022-08-07T07:33:17.282Z,15.67
2022-08-07T07:34:17.219Z,15.61
2022-08-07T07:35:17.182Z,15.67
2022-08-07T07:36:17.248Z,15.68
2022-08-07T07:37:45.075Z,15.76
2022-08-07T07:38:17.011Z,15.82
2022-08-07T07:39:16.993Z,15.82
2022-08-07T07:40:16.983Z,15.92
2022-08-07T07:41:16.889Z,15.95
2022-08-07T07:42:17.637Z,16.02
2022-08-07T07:43:27.525Z,16.05
2022-08-07T07:44:21.655Z,16.15
2022-08-07T07:45:16.655Z,16.20
2022-08-07T07:46:38.576Z,16.28
2022-08-07T07:47:23.658Z,16.23
2022-08-07T07:48:35.101Z,16.31
2022-08-07T07:50:33.455Z,16.36
2022-08-07T07:50:34.647Z,16.42
2022-08-07T07:51:16.348Z,16.43
2022-08-07T07:52:16.433Z,16.53
2022-08-07T07:53:23.290Z,16.60
2022-08-07T07:54:16.200Z,16.78
2022-08-07T07:55:16.147Z,16.72
2022-08-07T07:56:16.092Z,16.83
2022-08-07T07:57:16.056Z,16.86
2022-08-07T07:58:16.006Z,16.96
2022-08-07T07:59:15.944Z,17.05
2022-08-07T08:00:28.849Z,17.06
2022-08-07T08:02:01.964Z,17.20
2022-08-07T08:02:34.093Z,17.16
2022-08-07T08:03:16.934Z,17.27
2022-08-07T08:04:15.773Z,17.38
2022-08-07T08:05:15.636Z,17.42
2022-08-07T08:06:15.585Z,17.44
2022-08-07T08:07:15.534Z,17.45
2022-08-07T08:08:35.470Z,17.48
2022-08-07T08:09:15.436Z,17.56
2022-08-07T08:10:35.527Z,17.56
2022-08-07T08:11:17.836Z,17.63
2022-08-07T08:12:31.219Z,17.71
2022-08-07T08:13:15.549Z,17.80
2022-08-07T08:14:15.193Z,17.72
2022-08-07T08:15:15.195Z,17.87
2022-08-07T08:16:15.083Z,17.83
2022-08-07T08:17:57.650Z,17.98
2022-08-07T08:18:17.290Z,18.08
2022-08-07T08:19:17.920Z,18.15
2022-08-07T08:20:18.222Z,18.34
2022-08-07T08:21:14.830Z,18.31
2022-08-07T08:22:14.782Z,18.50
2022-08-07T08:23:14.732Z,18.83
2022-08-07T08:24:36.064Z,19.19
2022-08-07T08:25:25.096Z,19.70
2022-08-07T08:26:14.585Z,20.29
2022-08-07T08:27:14.531Z,20.74
2022-08-07T08:28:16.731Z,21.17
2022-08-07T08:29:14.430Z,21.58
2022-08-07T08:30:17.468Z,22.11
2022-08-07T08:31:15.819Z,22.60
2022-08-07T08:32:18.936Z,23.15
2022-08-07T08:33:16.199Z,23.54
2022-08-07T08:34:26.799Z,23.95
2022-08-07T08:35:14.149Z,24.33
2022-08-07T08:36:14.084Z,24.70
2022-08-07T08:37:59.055Z,25.14
2022-08-07T08:38:13.987Z,25.40
2022-08-07T08:39:15.318Z,25.46
2022-08-07T08:40:16.393Z,25.73
2022-08-07T08:41:13.841Z,25.93
2022-08-07T08:42:13.807Z,26.09
2022-08-07T08:43:13.746Z,26.19
2022-08-07T08:44:13.710Z,26.23
2022-08-07T08:45:13.815Z,26.48
2022-08-07T08:46:13.602Z,26.78
2022-08-07T08:47:13.553Z,27.21
2022-08-07T08:48:13.521Z,27.70
2022-08-07T08:49:13.458Z,28.04
2022-08-07T08:50:17.542Z,28.23
2022-08-07T08:51:14.211Z,28.62
2022-08-07T08:52:16.417Z,29.05
2022-08-07T08:53:13.270Z,29.54
2022-08-07T08:54:13.237Z,30.35
2022-08-07T08:55:21.145Z,31.03
2022-08-07T08:56:13.149Z,31.61
2022-08-07T08:57:13.088Z,32.04
2022-08-07T08:58:20.355Z,32.46
2022-08-07T08:59:16.319Z,32.26
2022-08-07T09:00:12.958Z,31.80
2022-08-07T09:01:15.038Z,31.52
2022-08-07T09:02:13.247Z,31.31
2022-08-07T09:03:12.827Z,31.17
2022-08-07T09:04:13.429Z,31.00
2022-08-07T09:05:14.675Z,30.78
2022-08-07T09:06:12.712Z,30.68
2022-08-07T09:07:12.659Z,30.62
2022-08-07T09:08:12.618Z,30.47
2022-08-07T09:09:21.170Z,30.15
2022-08-07T09:10:12.535Z,30.15
2022-08-07T09:11:14.087Z,30.15
2022-08-07T09:12:31.262Z,30.15
2022-08-07T09:13:14.912Z,30.15
2022-08-07T09:14:12.386Z,30.13
2022-08-07T09:16:20.425Z,29.76
2022-08-07T09:16:22.309Z,30.05
2022-08-07T09:17:12.247Z,29.81
2022-08-07T09:18:13.631Z,29.66
2022-08-07T09:19:50.747Z,29.73
2022-08-07T09:20:34.766Z,29.61
2022-08-07T09:21:13.752Z,29.34
2022-08-07T09:24:29.309Z,29.07
2022-08-07T09:24:33.424Z,28.37
2022-08-07T09:24:54.144Z,28.70
2022-08-07T09:25:17.467Z,28.26
2022-08-07T09:26:11.856Z,28.32
2022-08-07T09:27:13.471Z,28.35
2022-08-07T09:30:02.018Z,28.51
2022-08-07T09:30:06.371Z,28.66
2022-08-07T09:30:11.683Z,28.66
2022-08-07T09:31:11.656Z,28.72
2022-08-07T09:32:17.318Z,28.85
2022-08-07T09:33:16.896Z,28.76
2022-08-07T09:34:11.514Z,28.60
2022-08-07T09:36:04.168Z,28.48
2022-08-07T09:36:11.425Z,28.20
2022-08-07T09:37:11.393Z,28.01
2022-08-07T09:38:11.341Z,27.85
2022-08-07T09:39:53.035Z,27.89
2022-08-07T09:40:11.294Z,27.82
2022-08-07T09:41:11.211Z,27.64
2022-08-07T09:42:11.900Z,27.55
2022-08-07T09:43:11.126Z,27.48
2022-08-07T09:44:30.082Z,27.42
2022-08-07T09:47:23.554Z,27.78
2022-08-07T09:47:27.797Z,27.68
2022-08-07T09:47:51.688Z,27.86
2022-08-07T09:48:11.873Z,28.01
2022-08-07T09:50:00.406Z,28.26
2022-08-07T09:50:19.054Z,28.51
2022-08-07T09:51:26.079Z,28.88
2022-08-07T09:52:33.318Z,29.23
2022-08-07T09:53:11.179Z,29.47
2022-08-07T09:54:11.562Z,29.75
2022-08-07T09:55:17.395Z,30.02
2022-08-07T09:56:10.563Z,30.12
2022-08-07T09:57:12.979Z,30.24
2022-08-07T09:58:10.480Z,30.44
2022-08-07T09:59:14.103Z,30.27
2022-08-07T10:00:14.845Z,29.84
2022-08-07T10:01:14.679Z,29.27
2022-08-07T10:02:10.324Z,29.34
2022-08-07T10:04:06.620Z,29.59
2022-08-07T10:04:14.002Z,29.88
2022-08-07T10:05:12.504Z,30.12
2022-08-07T10:06:17.829Z,30.27
2022-08-07T10:07:24.655Z,30.59
2022-08-07T10:08:10.053Z,30.77
2022-08-07T10:09:10.010Z,31.06
2022-08-07T10:10:21.024Z,31.27
2022-08-07T10:11:16.994Z,31.44
2022-08-07T10:12:18.158Z,31.55
2022-08-07T10:13:15.694Z,31.55
2022-08-07T10:14:11.230Z,31.64
2022-08-07T10:15:15.210Z,31.73
2022-08-07T10:16:09.772Z,31.90
2022-08-07T10:17:14.072Z,31.94
2022-08-07T10:18:09.635Z,32.00
2022-08-07T10:19:11.510Z,32.14
2022-08-07T10:20:13.046Z,32.27
2022-08-07T10:21:19.785Z,32.14
2022-08-07T10:22:15.799Z,32.11
2022-08-07T10:23:09.745Z,32.26
2022-08-07T10:24:10.033Z,32.37
2022-08-07T10:25:09.345Z,32.38
2022-08-07T10:26:09.303Z,32.51
2022-08-07T10:27:10.435Z,32.65
2022-08-07T10:28:09.251Z,32.68
2022-08-07T10:29:09.190Z,32.75
2022-08-07T10:30:12.177Z,32.55
2022-08-07T10:31:11.018Z,32.43
2022-08-07T10:32:16.444Z,32.46
2022-08-07T10:33:09.029Z,32.46
2022-08-07T10:34:15.355Z,32.51
2022-08-07T10:35:12.353Z,32.43
2022-08-07T10:36:11.438Z,32.26
2022-08-07T10:37:12.434Z,32.22
2022-08-07T10:38:35.186Z,32.27
2022-08-07T10:39:08.823Z,32.34
2022-08-07T10:40:08.876Z,32.26
2022-08-07T10:41:08.690Z,32.23
2022-08-07T10:42:09.793Z,32.26
2022-08-07T10:43:08.622Z,32.48
2022-08-07T10:44:08.566Z,32.56
2022-08-07T10:45:08.542Z,32.73
2022-08-07T10:46:08.495Z,32.78
2022-08-07T10:47:11.951Z,32.87
2022-08-07T10:48:09.721Z,32.86
2022-08-07T10:49:08.364Z,32.96
2022-08-07T10:50:08.324Z,33.17
2022-08-07T10:51:16.252Z,33.14
2022-08-07T10:52:13.200Z,32.97
2022-08-07T10:53:09.067Z,32.90
2022-08-07T10:54:13.230Z,33.01
2022-08-07T10:55:26.802Z,33.07
2022-08-07T10:56:08.111Z,32.82
2022-08-07T10:57:08.060Z,32.52
2022-08-07T10:58:08.039Z,32.01
2022-08-07T10:59:07.996Z,31.84
2022-08-07T11:00:08.831Z,31.64
2022-08-07T11:01:11.638Z,31.61
2022-08-07T11:02:27.300Z,31.56
2022-08-07T11:03:11.340Z,31.52
2022-08-07T11:04:16.764Z,31.73
2022-08-07T11:05:10.290Z,31.71
2022-08-07T11:06:07.705Z,31.73
2022-08-07T11:07:24.833Z,31.40
2022-08-07T11:08:08.099Z,31.17
2022-08-07T11:09:11.509Z,31.07
2022-08-07T11:10:10.896Z,31.14
2022-08-07T11:11:07.502Z,31.34
2022-08-07T11:12:07.447Z,31.64
2022-08-07T11:13:07.442Z,31.89
2022-08-07T11:14:44.284Z,31.97
2022-08-07T11:15:14.785Z,32.08
2022-08-07T11:16:07.453Z,32.04
2022-08-07T11:17:09.120Z,31.87
2022-08-07T11:18:07.245Z,32.00
2022-08-07T11:19:07.198Z,32.18
2022-08-07T11:20:07.278Z,32.30
2022-08-07T11:21:07.107Z,32.46
2022-08-07T11:22:07.074Z,32.71
2022-08-07T11:23:07.284Z,32.92
2022-08-07T11:24:08.475Z,33.07
2022-08-07T11:25:07.435Z,33.31
2022-08-07T11:26:07.174Z,33.46
2022-08-07T11:27:06.844Z,33.52
2022-08-07T11:28:07.059Z,33.37
2022-08-07T11:29:41.170Z,33.32
2022-08-07T11:30:18.636Z,33.36
2022-08-07T11:31:08.935Z,33.50
2022-08-07T11:32:06.676Z,33.62
2022-08-07T11:33:07.894Z,33.74
2022-08-07T11:34:06.608Z,33.73
2022-08-07T11:35:06.546Z,33.87
2022-08-07T11:36:10.034Z,33.92
2022-08-07T11:37:06.789Z,33.83
2022-08-07T11:38:12.614Z,33.77
2022-08-07T11:39:06.811Z,33.69
2022-08-07T11:40:06.408Z,33.71
2022-08-07T11:41:06.604Z,33.69
2022-08-07T11:42:06.297Z,33.61
2022-08-07T11:43:06.269Z,33.47
2022-08-07T11:44:12.220Z,33.49
2022-08-07T11:45:06.174Z,33.53
2022-08-07T11:46:06.132Z,33.55
2022-08-07T11:47:06.151Z,33.45
2022-08-07T11:48:17.982Z,33.36
2022-08-07T11:49:50.065Z,33.47
2022-08-07T11:50:30.723Z,33.46
2022-08-07T11:51:09.155Z,33.47
2022-08-07T11:52:05.903Z,33.34
2022-08-07T11:53:05.837Z,33.19
2022-08-07T11:54:10.274Z,33.08
2022-08-07T11:55:13.089Z,32.96
2022-08-07T11:56:25.759Z,33.19
2022-08-07T11:57:05.714Z,33.17
2022-08-07T11:58:05.640Z,33.12
2022-08-07T12:00:08.225Z,33.17
2022-08-07T12:00:11.552Z,33.20
2022-08-07T12:01:06.790Z,33.28
2022-08-07T12:02:05.585Z,33.20
2022-08-07T12:03:05.444Z,33.17
2022-08-07T12:04:05.403Z,33.09
2022-08-07T12:05:09.160Z,32.97
2022-08-07T12:06:39.062Z,33.00
2022-08-07T12:07:09.047Z,33.15
2022-08-07T12:08:05.242Z,33.00
2022-08-07T12:09:05.214Z,32.55
2022-08-07T12:10:05.771Z,32.14
2022-08-07T12:11:20.285Z,32.01
2022-08-07T12:12:10.001Z,31.69
2022-08-07T12:13:11.562Z,31.84
2022-08-07T12:14:05.013Z,32.15
2022-08-07T12:15:04.993Z,32.26
2022-08-07T12:16:07.089Z,32.38
2022-08-07T12:17:04.877Z,32.59
2022-08-07T12:18:08.289Z,32.65
2022-08-07T12:19:04.836Z,32.74
2022-08-07T12:20:09.493Z,32.82
2022-08-07T12:21:04.739Z,32.95
2022-08-07T12:22:37.637Z,32.83
2022-08-07T12:23:09.118Z,32.89
2022-08-07T12:24:05.013Z,33.07
2022-08-07T12:25:07.816Z,33.14
2022-08-07T12:26:29.080Z,32.97
2022-08-07T12:27:04.502Z,32.86
2022-08-07T12:28:09.458Z,32.95
2022-08-07T12:29:04.460Z,33.04
2022-08-07T12:30:04.390Z,33.11
2022-08-07T12:31:04.368Z,33.15
2022-08-07T12:32:04.782Z,33.24
2022-08-07T12:33:18.943Z,33.36
2022-08-07T12:34:04.328Z,33.49
2022-08-07T12:35:05.707Z,33.58
2022-08-07T12:36:04.147Z,33.53
2022-08-07T12:37:08.640Z,33.49
2022-08-07T12:38:10.759Z,33.46
2022-08-07T12:39:43.137Z,33.53
2022-08-07T12:40:04.035Z,33.59
2022-08-07T12:41:04.012Z,33.74
2022-08-07T12:42:03.899Z,33.80
2022-08-07T12:43:09.505Z,33.71
2022-08-07T12:44:06.372Z,33.79
2022-08-07T12:45:05.574Z,33.59
2022-08-07T12:46:03.770Z,33.57
2022-08-07T12:47:06.395Z,33.71
2022-08-07T12:48:03.676Z,33.68
2022-08-07T12:49:09.863Z,33.73
2022-08-07T12:50:05.112Z,33.65
2022-08-07T12:51:17.297Z,33.59
2022-08-07T12:52:14.042Z,33.61